Time;durP1;ratioP1;P1;durP2;ratioP2;P2;SDS_P1;SDS_P2;PMS_P1;PMS_P2;Temp;Humidity;BMP_temperature;BMP_pressure;BME280_temperature;BME280_humidity;BME280_pressure;Samples;Min_cycle;Max_cycle;Signal;HPM_P1;HPM_P2
2021/07/17 00:01:23;;;;;;;17.95;13.43;;;;;;;20.53;83.89;96455.38;1773058;79;20909;-80
2021/07/17 00:03:49;;;;;;;20.02;13.20;;;;;;;20.49;84.05;96456.87;1771909;79;20984;-80
2021/07/17 00:06:15;;;;;;;18.27;13.95;;;;;;;20.46;84.11;96459.48;1769662;79;20986;-81
2021/07/17 00:08:41;;;;;;;17.10;12.65;;;;;;;20.45;84.23;96461.05;1767815;79;20962;-81
2021/07/17 00:11:08;;;;;;;16.85;13.45;;;;;;;20.43;84.21;96465.77;1788305;78;20943;-81
2021/07/17 00:13:33;;;;;;;14.90;13.13;;;;;;;20.43;84.18;96461.81;1758559;80;20962;-81
2021/07/17 00:15:59;;;;;;;15.83;13.58;;;;;;;20.43;84.22;96472.37;1723353;80;20906;-81
2021/07/17 00:18:25;;;;;;;15.43;13.43;;;;;;;20.42;84.22;96467.62;1802206;79;20943;-81
2021/07/17 00:20:51;;;;;;;18.15;14.25;;;;;;;20.46;84.17;96466.08;1757190;80;20987;-80
2021/07/17 00:23:17;;;;;;;15.83;13.68;;;;;;;20.50;84.08;96459.30;1753758;80;21033;-80
2021/07/17 00:25:45;;;;;;;16.12;13.43;;;;;;;20.52;83.87;96455.10;1747163;80;20943;-81
2021/07/17 00:28:10;;;;;;;17.25;13.88;;;;;;;20.50;83.57;96444.79;1760332;80;20916;-80
2021/07/17 00:30:36;;;;;;;18.12;15.15;;;;;;;20.49;83.63;96433.92;1800119;79;20964;-81
2021/07/17 00:33:03;;;;;;;18.57;15.53;;;;;;;20.47;83.46;96436.01;1746110;80;21266;-81
2021/07/17 00:35:29;;;;;;;19.77;15.68;;;;;;;20.44;83.59;96429.11;1760131;80;20936;-81
2021/07/17 00:38:04;;;;;;;19.57;15.15;;;;;;;20.48;83.69;96432.84;1756382;80;21285;-81
2021/07/17 00:40:30;;;;;;;18.37;15.28;;;;;;;20.47;83.48;96437.33;1779515;79;20927;-80
2021/07/17 00:42:55;;;;;;;18.10;15.00;;;;;;;20.45;83.44;96429.38;1761100;80;20952;-81
2021/07/17 00:45:21;;;;;;;18.95;14.38;;;;;;;20.43;83.48;96429.62;1758516;80;21281;-80
2021/07/17 00:47:47;;;;;;;18.77;16.27;;;;;;;20.43;83.69;96437.55;1794890;79;20932;-81
2021/07/17 00:50:15;;;;;;;19.60;16.12;;;;;;;20.43;83.78;96434.11;1758195;80;20916;-81
2021/07/17 00:52:41;;;;;;;17.73;15.80;;;;;;;20.42;84.04;96437.27;1766768;80;21332;-81
2021/07/17 00:55:08;;;;;;;20.97;14.75;;;;;;;20.43;84.03;96443.34;1803032;79;20919;-81
2021/07/17 00:57:35;;;;;;;16.85;14.50;;;;;;;20.42;84.32;96441.75;1763289;80;20912;-81
2021/07/17 01:00:05;;;;;;;16.55;12.82;;;;;;;20.40;84.32;96449.87;1772291;79;20919;-81
2021/07/17 01:02:35;;;;;;;16.20;14.38;;;;;;;20.39;84.46;96453.56;1769789;79;20966;-80
2021/07/17 01:05:01;;;;;;;16.67;14.55;;;;;;;20.38;84.35;96451.96;1771534;79;21253;-82
2021/07/17 01:07:27;;;;;;;18.75;14.43;;;;;;;20.36;84.28;96456.16;1771021;79;20854;-81
2021/07/17 01:09:53;;;;;;;16.97;14.33;;;;;;;20.38;84.29;96462.00;1771466;79;20924;-81
2021/07/17 01:12:19;;;;;;;15.75;14.05;;;;;;;20.40;84.35;96464.39;1772608;79;20990;-81
2021/07/17 01:14:46;;;;;;;17.55;15.40;;;;;;;20.45;84.32;96455.77;1797913;79;21010;-81
2021/07/17 01:17:12;;;;;;;18.45;14.50;;;;;;;20.46;84.28;96451.57;1758409;80;20991;-81
2021/07/17 01:19:38;;;;;;;18.40;15.50;;;;;;;20.50;84.32;96457.16;1757578;80;20980;-80
2021/07/17 01:22:04;;;;;;;19.23;16.87;;;;;;;20.53;84.35;96464.09;1774713;79;20930;-81
2021/07/17 01:24:30;;;;;;;19.00;16.12;;;;;;;20.54;84.07;96469.65;1749685;80;20994;-81
2021/07/17 01:26:55;;;;;;;17.15;15.25;;;;;;;20.55;84.15;96480.48;1752967;80;21294;-80
2021/07/17 01:29:21;;;;;;;18.07;15.93;;;;;;;20.54;84.22;96479.41;1754404;80;20971;-81
2021/07/17 01:31:47;;;;;;;18.75;15.48;;;;;;;20.53;84.20;96479.13;1754130;80;20999;-81
2021/07/17 01:34:13;;;;;;;18.50;15.18;;;;;;;20.53;84.17;96477.30;1779393;80;21351;-81
2021/07/17 01:36:38;;;;;;;18.07;15.48;;;;;;;20.56;84.39;96482.08;1774823;79;20971;-80
2021/07/17 01:39:05;;;;;;;16.95;15.25;;;;;;;20.58;84.48;96480.52;1781637;80;20980;-81
2021/07/17 01:41:31;;;;;;;18.70;15.63;;;;;;;20.59;84.66;96476.31;1741033;80;20947;-80
2021/07/17 01:43:57;;;;;;;20.80;15.72;;;;;;;20.60;84.85;96477.11;1786992;79;21296;-81
2021/07/17 01:46:25;;;;;;;16.17;14.40;;;;;;;20.61;84.82;96476.86;1790961;79;20949;-81
2021/07/17 01:48:57;;;;;;;16.42;14.70;;;;;;;20.64;84.96;96479.02;1729928;79;20997;-81
2021/07/17 01:51:24;;;;;;;16.85;15.13;;;;;;;20.68;84.80;96478.03;1772387;79;20944;-81
2021/07/17 01:53:56;;;;;;;18.17;16.17;;;;;;;20.73;84.98;96463.57;1760474;79;20925;-81
2021/07/17 01:56:22;;;;;;;18.32;16.48;;;;;;;20.75;84.81;96457.52;1771045;79;20973;-81
2021/07/17 01:58:49;;;;;;;18.23;16.12;;;;;;;20.76;84.80;96467.56;1770026;79;21047;-80
2021/07/17 02:01:15;;;;;;;17.82;15.13;;;;;;;20.74;85.02;96463.84;1770065;79;20967;-81
2021/07/17 02:03:46;;;;;;;18.07;15.03;;;;;;;20.73;84.79;96467.53;1771356;79;21036;-81
2021/07/17 02:06:13;;;;;;;18.82;16.90;;;;;;;20.75;84.71;96465.96;1770553;79;20912;-81
2021/07/17 02:08:41;;;;;;;17.48;14.90;;;;;;;20.72;84.43;96464.61;1771436;79;20943;-81
2021/07/17 02:11:09;;;;;;;22.13;15.72;;;;;;;20.70;84.31;96474.63;1770604;79;20988;-81
2021/07/17 02:13:35;;;;;;;19.45;16.75;;;;;;;20.70;84.40;96473.30;1769940;80;21329;-81
2021/07/17 02:16:01;;;;;;;19.32;16.75;;;;;;;20.72;84.27;96471.73;1737474;81;21320;-81
2021/07/17 02:18:32;;;;;;;21.30;18.80;;;;;;;20.71;84.19;96464.86;1748464;81;20950;-81
2021/07/17 02:21:00;;;;;;;21.30;17.52;;;;;;;20.70;84.47;96461.94;1779563;79;20946;-82
2021/07/17 02:23:27;;;;;;;20.52;17.70;;;;;;;20.68;84.58;96458.23;1781467;79;20969;-81
2021/07/17 02:25:53;;;;;;;19.15;17.12;;;;;;;20.66;84.51;96462.44;1784529;79;21272;-81
2021/07/17 02:28:20;;;;;;;21.68;17.98;;;;;;;20.66;84.39;96466.89;1782507;79;20922;-81
2021/07/17 02:30:48;;;;;;;18.10;16.23;;;;;;;20.66;84.33;96461.61;1786766;79;21300;-81
2021/07/17 02:33:14;;;;;;;18.57;16.37;;;;;;;20.63;84.30;96460.78;1782025;79;20923;-80
2021/07/17 02:35:40;;;;;;;18.98;16.82;;;;;;;20.63;84.42;96468.70;1781366;79;20985;-81
2021/07/17 02:38:06;;;;;;;18.98;16.95;;;;;;;20.65;84.43;96474.53;1781712;79;20910;-81
2021/07/17 02:40:32;;;;;;;19.40;17.15;;;;;;;20.68;84.73;96465.63;1778072;79;20888;-82
2021/07/17 02:42:57;;;;;;;18.87;16.93;;;;;;;20.70;84.48;96456.14;1760175;80;20994;-81
2021/07/17 02:45:23;;;;;;;20.72;18.30;;;;;;;20.69;84.43;96453.23;1750006;80;20921;-81
2021/07/17 02:47:49;;;;;;;20.45;18.32;;;;;;;20.68;84.86;96451.11;1748763;80;21467;-81
2021/07/17 02:50:14;;;;;;;21.97;18.85;;;;;;;20.68;84.75;96447.67;1758901;80;20956;-81
2021/07/17 02:52:40;;;;;;;21.05;18.77;;;;;;;20.67;84.73;96451.35;1754510;80;20986;-80
2021/07/17 02:55:07;;;;;;;20.37;17.92;;;;;;;20.63;84.61;96454.98;1754736;80;21022;-81
2021/07/17 02:57:33;;;;;;;21.85;18.10;;;;;;;20.62;84.69;96456.02;1757792;80;20919;-81
2021/07/17 02:59:59;;;;;;;25.37;17.55;;;;;;;20.65;85.20;96461.33;1789195;79;20903;-81
2021/07/17 03:02:25;;;;;;;19.12;16.95;;;;;;;20.66;85.26;96466.40;1746451;80;20924;-81
2021/07/17 03:04:51;;;;;;;18.50;16.57;;;;;;;20.67;84.87;96463.23;1753783;81;20994;-81
2021/07/17 03:07:17;;;;;;;18.67;16.52;;;;;;;20.66;84.80;96453.69;1743918;80;20956;-81
2021/07/17 03:09:43;;;;;;;20.57;18.55;;;;;;;20.68;84.88;96456.91;1783101;79;21242;-81
2021/07/17 03:12:08;;;;;;;18.00;16.23;;;;;;;20.71;85.05;96460.38;1786504;79;20943;-81
2021/07/17 03:14:35;;;;;;;20.70;18.50;;;;;;;20.74;84.95;96455.92;1795749;79;20972;-80
2021/07/17 03:17:00;;;;;;;22.05;16.37;;;;;;;20.72;84.81;96453.25;1802468;79;20980;-80
2021/07/17 03:19:26;;;;;;;20.32;16.05;;;;;;;20.71;84.95;96458.26;1796305;79;20963;-81
2021/07/17 03:21:52;;;;;;;18.95;16.95;;;;;;;20.72;84.76;96462.50;1767207;79;21172;-81
2021/07/17 03:24:18;;;;;;;20.00;17.50;;;;;;;20.71;84.71;96464.86;1737915;81;20949;-81
2021/07/17 03:26:44;;;;;;;22.22;18.30;;;;;;;20.71;84.91;96465.66;1765795;80;21308;-81
2021/07/17 03:29:10;;;;;;;23.70;20.72;;;;;;;20.76;85.00;96468.88;1767424;79;20875;-81
2021/07/17 03:31:36;;;;;;;23.85;21.40;;;;;;;20.81;84.85;96470.27;1763988;80;21272;-80
2021/07/17 03:34:01;;;;;;;24.75;22.13;;;;;;;20.85;84.97;96474.83;1735531;81;21007;-80
2021/07/17 03:36:27;;;;;;;24.82;22.30;;;;;;;20.86;84.92;96473.78;1766659;79;21023;-80
2021/07/17 03:38:53;;;;;;;27.98;22.05;;;;;;;20.90;85.15;96470.13;1769632;79;20948;-81
2021/07/17 03:41:19;;;;;;;29.52;24.60;;;;;;;20.93;84.98;96472.28;1770521;80;20974;-81
2021/07/17 03:43:45;;;;;;;27.95;25.00;;;;;;;20.96;85.34;96472.58;1768329;79;20992;-81
2021/07/17 03:46:11;;;;;;;25.97;20.50;;;;;;;21.03;85.23;96469.77;1767617;80;21037;-81
2021/07/17 03:48:37;;;;;;;19.82;16.65;;;;;;;21.07;85.06;96471.40;1767258;79;20983;-81
2021/07/17 03:51:04;;;;;;;18.92;16.97;;;;;;;21.15;85.19;96476.23;1737237;79;21012;-81
2021/07/17 03:53:30;;;;;;;19.12;17.27;;;;;;;21.18;84.81;96483.17;1769556;79;21055;-81
2021/07/17 03:55:55;;;;;;;19.37;17.17;;;;;;;21.14;84.69;96483.36;1767737;79;20987;-80
2021/07/17 03:58:22;;;;;;;19.35;16.17;;;;;;;21.15;84.74;96481.52;1769253;79;22110;-80
2021/07/17 04:00:48;;;;;;;18.37;16.48;;;;;;;21.18;84.87;96475.77;1763107;79;20959;-81
2021/07/17 04:03:14;;;;;;;19.80;17.00;;;;;;;21.18;84.68;96481.85;1769371;79;20948;-81
2021/07/17 04:05:40;;;;;;;29.37;20.17;;;;;;;21.17;84.62;96478.94;1762090;80;20973;-81
2021/07/17 04:08:06;;;;;;;17.20;15.50;;;;;;;21.22;84.86;96490.08;1769427;79;21018;-80
2021/07/17 04:10:32;;;;;;;19.52;16.20;;;;;;;21.26;85.11;96487.24;1768610;79;21276;-80
2021/07/17 04:12:58;;;;;;;20.50;18.10;;;;;;;21.31;85.05;96479.89;1769979;79;20998;-80
2021/07/17 04:15:24;;;;;;;23.10;18.87;;;;;;;21.33;84.68;96483.91;1769245;79;21032;-81
2021/07/17 04:17:50;;;;;;;30.60;24.57;;;;;;;21.37;84.63;96491.61;1772080;79;21247;-81
2021/07/17 04:20:15;;;;;;;22.10;19.70;;;;;;;21.34;84.74;96486.83;1770168;79;20994;-80
2021/07/17 04:22:41;;;;;;;28.10;23.12;;;;;;;21.41;84.89;96486.63;1771959;79;20990;-81
2021/07/17 04:25:08;;;;;;;24.15;20.90;;;;;;;21.44;85.17;96478.19;1770400;79;20963;-81
2021/07/17 04:27:34;;;;;;;25.23;22.13;;;;;;;21.51;85.43;96480.94;1737405;79;20966;-81
2021/07/17 04:30:00;;;;;;;21.17;17.92;;;;;;;21.56;85.12;96480.98;1769330;79;21995;-81
2021/07/17 04:32:26;;;;;;;24.43;18.80;;;;;;;21.61;84.99;96476.78;1769300;79;20950;-81
2021/07/17 04:34:52;;;;;;;26.87;19.05;;;;;;;21.65;85.04;96471.30;1770877;79;20867;-81
2021/07/17 04:37:18;;;;;;;23.83;18.65;;;;;;;21.72;84.85;96476.64;1771802;79;20971;-81
2021/07/17 04:39:46;;;;;;;28.80;23.22;;;;;;;21.79;84.85;96469.81;1772851;79;21408;-81
2021/07/17 04:42:12;;;;;;;27.42;22.77;;;;;;;21.80;84.65;96476.70;1771789;79;21000;-82
2021/07/17 04:44:38;;;;;;;29.90;23.75;;;;;;;21.82;84.58;96469.34;1771491;79;20946;-82
2021/07/17 04:47:04;;;;;;;29.00;23.45;;;;;;;21.73;84.55;96462.38;1771732;79;20890;-80
2021/07/17 04:49:29;;;;;;;27.20;22.45;;;;;;;21.73;84.55;96462.38;1769715;79;20939;-81
2021/07/17 04:51:55;;;;;;;25.35;21.60;;;;;;;21.81;84.66;96464.58;1768591;79;21247;-81
2021/07/17 04:54:21;;;;;;;25.08;22.52;;;;;;;21.86;84.52;96465.14;1769750;79;20972;-81
2021/07/17 04:56:46;;;;;;;24.57;21.62;;;;;;;21.90;84.63;96460.94;1769798;79;20963;-81
2021/07/17 04:59:12;;;;;;;24.57;19.95;;;;;;;21.90;84.36;96466.23;1773621;79;20991;-81
2021/07/17 05:01:38;;;;;;;23.92;20.25;;;;;;;21.87;84.42;96463.56;1771821;79;22277;-82
2021/07/17 05:04:04;;;;;;;23.83;20.95;;;;;;;21.93;84.61;96468.37;1741610;81;20936;-81
2021/07/17 05:06:30;;;;;;;25.75;21.97;;;;;;;21.93;84.19;96463.60;1771635;79;21003;-81
2021/07/17 05:08:56;;;;;;;24.57;21.95;;;;;;;21.95;84.47;96462.30;1769955;79;21049;-81
2021/07/17 05:11:22;;;;;;;26.17;21.50;;;;;;;22.01;84.56;96462.63;1739486;81;21276;-80
2021/07/17 05:13:48;;;;;;;22.32;19.27;;;;;;;22.00;84.38;96456.27;1766241;80;20988;-82
2021/07/17 05:16:14;;;;;;;23.95;20.10;;;;;;;22.00;84.25;96458.39;1734289;80;20929;-81
2021/07/17 05:18:40;;;;;;;23.75;19.55;;;;;;;22.01;84.20;96453.89;1763467;80;20920;-81
2021/07/17 05:21:05;;;;;;;21.97;19.40;;;;;;;22.04;84.04;96454.19;1764048;80;20931;-81
2021/07/17 05:23:31;;;;;;;21.40;18.87;;;;;;;22.11;84.18;96454.78;1728731;81;21014;-81
2021/07/17 05:25:57;;;;;;;23.77;19.90;;;;;;;22.16;84.00;96449.55;1744717;80;20959;-81
2021/07/17 05:28:23;;;;;;;22.35;19.92;;;;;;;;;;1782764;80;21328;-81
2021/07/17 05:30:49;;;;;;;20.70;18.52;;;;;;;;;;1773085;80;20961;-81
2021/07/17 05:33:16;;;;;;;18.52;16.52;;;;;;;22.12;83.92;96453.73;1735101;81;20941;-81
2021/07/17 05:35:41;;;;;;;19.62;16.90;;;;;;;22.05;83.37;96451.05;1726069;81;20957;-81
2021/07/17 05:38:07;;;;;;;21.48;17.73;;;;;;;22.02;83.25;96456.81;1740577;81;21291;-81
2021/07/17 05:40:33;;;;;;;20.25;17.05;;;;;;;22.04;83.61;96456.83;1753883;80;20932;-81
2021/07/17 05:42:58;;;;;;;23.07;18.42;;;;;;;22.08;83.78;96461.12;1758439;80;20896;-82
2021/07/17 05:45:24;;;;;;;17.95;15.90;;;;;;;22.15;83.71;96460.39;1731249;80;21361;-81
2021/07/17 05:47:50;;;;;;;22.50;16.50;;;;;;;22.23;83.98;96465.73;1753243;80;20976;-81
2021/07/17 05:50:18;;;;;;;19.52;16.73;;;;;;;22.20;83.17;96468.89;1743922;80;20909;-82
2021/07/17 05:52:44;;;;;;;21.35;17.40;;;;;;;22.18;82.98;96471.00;1753451;80;20904;-81
2021/07/17 05:55:09;;;;;;;19.95;17.90;;;;;;;22.12;83.01;96474.11;1759486;80;20995;-81
2021/07/17 05:57:35;;;;;;;19.82;16.00;;;;;;;22.16;83.59;96473.38;1751512;80;20908;-82
2021/07/17 06:00:01;;;;;;;22.62;17.57;;;;;;;22.23;83.67;96477.12;1758323;80;20923;-81
2021/07/17 06:02:27;;;;;;;23.42;17.98;;;;;;;22.27;83.70;96477.41;1751584;80;21271;-81
2021/07/17 06:04:53;;;;;;;16.75;15.05;;;;;;;22.33;83.53;96472.44;1754905;80;20900;-81
2021/07/17 06:07:20;;;;;;;19.67;15.95;;;;;;;22.39;83.84;96474.86;1759801;80;20888;-82
2021/07/17 06:09:46;;;;;;;18.32;16.37;;;;;;;22.43;82.96;96475.14;1760819;80;20924;-81
2021/07/17 06:12:12;;;;;;;19.60;14.87;;;;;;;22.42;82.52;96475.67;1761353;80;20916;-81
2021/07/17 06:14:39;;;;;;;15.32;13.65;;;;;;;22.51;83.08;96476.00;1752162;80;20983;-81
2021/07/17 06:17:11;;;;;;;20.20;15.32;;;;;;;22.48;81.64;96479.70;1771252;79;21025;-81
2021/07/17 06:19:33;;;;;;;20.17;16.02;;;;;;;22.41;82.21;96482.55;1775268;79;20958;-81
2021/07/17 06:21:59;;;;;;;18.27;14.38;;;;;;;22.43;82.57;96487.85;1775751;79;20914;-81
2021/07/17 06:24:25;;;;;;;19.42;16.93;;;;;;;22.47;82.83;96496.11;1772070;79;20918;-81
2021/07/17 06:26:51;;;;;;;20.45;16.25;;;;;;;22.51;82.15;96497.19;1774319;79;21184;-81
2021/07/17 06:29:16;;;;;;;19.15;14.98;;;;;;;22.55;82.09;96496.15;1776545;79;20894;-81
2021/07/17 06:31:42;;;;;;;21.40;16.02;;;;;;;22.57;81.78;96495.36;1774546;79;21020;-81
2021/07/17 06:34:08;;;;;;;19.02;16.32;;;;;;;22.63;81.75;96493.04;1776279;79;20946;-81
2021/07/17 06:36:34;;;;;;;17.57;15.38;;;;;;;22.57;80.94;96492.19;1768819;79;20968;-81
2021/07/17 06:39:00;;;;;;;17.62;15.75;;;;;;;22.53;81.38;96491.11;1779982;79;20943;-81
2021/07/17 06:41:25;;;;;;;17.25;14.13;;;;;;;22.51;81.83;96495.86;1778500;79;20939;-81
2021/07/17 06:43:51;;;;;;;21.15;15.30;;;;;;;22.54;82.18;96495.35;1776467;79;20942;-81
2021/07/17 06:46:17;;;;;;;16.15;13.55;;;;;;;22.55;81.52;96490.85;1788639;79;21011;-81
2021/07/17 06:48:42;;;;;;;19.62;14.20;;;;;;;22.63;81.99;96489.06;1776018;79;20974;-81
2021/07/17 06:51:08;;;;;;;17.15;14.87;;;;;;;22.68;81.98;96489.89;1776821;79;20977;-81
2021/07/17 06:53:37;;;;;;;19.60;16.77;;;;;;;22.76;81.67;96488.06;1782244;79;20915;-81
2021/07/17 06:56:04;;;;;;;17.17;15.40;;;;;;;22.80;80.62;96479.63;1779128;79;20971;-80
2021/07/17 06:58:29;;;;;;;19.35;15.65;;;;;;;22.77;80.93;96491.52;1776040;79;21272;-81
2021/07/17 07:00:56;;;;;;;16.40;14.50;;;;;;;22.83;81.29;96489.73;1777968;79;20974;-82
2021/07/17 07:03:23;;;;;;;17.25;13.90;;;;;;;22.94;81.43;96490.88;1777132;79;21280;-81
2021/07/17 07:05:49;;;;;;;16.37;14.68;;;;;;;23.08;81.24;96485.88;1775722;79;21272;-80
2021/07/17 07:08:15;;;;;;;16.23;14.55;;;;;;;23.12;80.05;96480.88;1777059;79;20974;-80
2021/07/17 07:10:41;;;;;;;16.67;14.78;;;;;;;23.10;79.75;96481.11;1776898;79;20963;-80
2021/07/17 07:13:10;;;;;;;19.62;15.58;;;;;;;23.10;80.05;96484.29;1780126;79;21346;-79
2021/07/17 07:15:36;;;;;;;19.40;14.60;;;;;;;23.15;79.79;96486.98;1759462;80;21348;-80
2021/07/17 07:18:02;;;;;;;18.60;15.10;;;;;;;23.22;79.82;96489.66;1760635;80;20919;-80
2021/07/17 07:20:28;;;;;;;16.73;14.98;;;;;;;23.34;79.33;96488.12;1761340;80;20932;-81
2021/07/17 07:22:54;;;;;;;17.30;15.58;;;;;;;23.47;79.72;96482.86;1748033;80;20912;-80
2021/07/17 07:25:20;;;;;;;17.60;14.03;;;;;;;23.60;79.18;96479.75;1753096;80;21261;-80
2021/07/17 07:27:46;;;;;;;16.32;14.73;;;;;;;23.63;79.03;96489.30;1758507;80;21028;-80
2021/07/17 07:30:13;;;;;;;16.93;15.15;;;;;;;23.64;78.01;96488.24;1738259;81;21023;-80
2021/07/17 07:32:38;;;;;;;15.53;12.80;;;;;;;23.70;77.85;96486.91;1749766;80;21233;-80
2021/07/17 07:35:04;;;;;;;15.55;13.90;;;;;;;23.73;77.98;96489.04;1753652;80;20969;-81
2021/07/17 07:37:30;;;;;;;16.48;14.78;;;;;;;23.75;78.11;96490.37;1756116;80;20987;-81
2021/07/17 07:39:56;;;;;;;17.07;14.95;;;;;;;23.73;77.16;96491.16;1751441;80;21276;-81
2021/07/17 07:42:23;;;;;;;17.05;15.25;;;;;;;23.67;77.25;96490.09;1756107;80;20935;-85
2021/07/17 07:44:52;;;;;;;17.32;15.10;;;;;;;23.58;77.24;96493.77;1734378;81;21973;-80
2021/07/17 07:47:19;;;;;;;19.57;15.20;;;;;;;23.50;76.66;96503.55;1762717;80;20957;-80
2021/07/17 07:49:46;;;;;;;16.07;14.38;;;;;;;23.35;76.98;96502.44;1745320;81;21039;-80
2021/07/17 07:52:13;;;;;;;17.50;15.65;;;;;;;23.31;77.39;96507.99;1745234;80;20884;-81
2021/07/17 07:54:39;;;;;;;16.62;14.73;;;;;;;23.31;78.09;96507.99;1722233;81;20976;-83
2021/07/17 07:57:05;;;;;;;16.20;13.95;;;;;;;23.31;78.35;96510.64;1742555;80;20927;-81
2021/07/17 07:59:30;;;;;;;15.98;14.38;;;;;;;23.31;77.84;96513.83;1743514;80;20999;-81
2021/07/17 08:01:56;;;;;;;15.10;13.60;;;;;;;23.36;78.15;96511.98;1748037;80;21262;-82
2021/07/17 08:04:22;;;;;;;15.18;13.68;;;;;;;23.52;77.85;96505.41;1739864;80;21426;-81
2021/07/17 08:06:48;;;;;;;17.07;15.28;;;;;;;23.82;77.97;96519.31;1742503;80;21209;-81
2021/07/17 08:09:14;;;;;;;16.35;14.75;;;;;;;23.82;77.97;96519.31;1748208;80;21078;-81
2021/07/17 08:11:40;;;;;;;16.82;14.95;;;;;;;23.91;78.07;96517.19;1747224;80;21231;-81
2021/07/17 08:14:06;;;;;;;15.85;13.93;;;;;;;24.02;76.79;96511.38;1762125;79;21001;-81
2021/07/17 08:16:32;;;;;;;15.75;14.25;;;;;;;24.06;76.46;96517.75;1759644;81;20973;-82
2021/07/17 08:18:57;;;;;;;17.77;15.83;;;;;;;24.02;76.20;96519.34;1766864;80;20995;-81
2021/07/17 08:21:23;;;;;;;17.25;15.32;;;;;;;24.00;76.84;96528.64;1745118;81;20991;-81
2021/07/17 08:23:49;;;;;;;15.78;14.13;;;;;;;23.99;76.86;96527.84;1725900;81;20991;-81
2021/07/17 08:26:14;;;;;;;16.62;13.38;;;;;;;24.08;77.27;96521.47;1792087;79;20928;-81
2021/07/17 08:28:40;;;;;;;15.23;13.72;;;;;;;24.20;77.56;96523.34;1779244;79;20915;-81
2021/07/17 08:31:06;;;;;;;14.40;12.90;;;;;;;24.29;77.08;96527.11;1751462;81;20950;-81
2021/07/17 08:33:32;;;;;;;13.30;12.00;;;;;;;24.38;76.38;96523.38;1750624;81;20905;-81
2021/07/17 08:35:58;;;;;;;14.35;12.93;;;;;;;24.41;76.37;96522.34;1776518;79;20918;-81
2021/07/17 08:38:24;;;;;;;14.98;13.20;;;;;;;24.50;76.01;96519.92;1777262;79;20911;-81
2021/07/17 08:40:55;;;;;;;14.05;12.58;;;;;;;24.55;75.58;96521.24;1782864;79;20983;-81
2021/07/17 08:43:22;;;;;;;13.43;12.05;;;;;;;24.57;75.72;96522.30;1782832;79;21304;-82
2021/07/17 08:45:48;;;;;;;14.55;13.08;;;;;;;24.59;76.07;96517.55;1782639;79;21048;-81
2021/07/17 08:48:14;;;;;;;14.10;12.15;;;;;;;24.57;74.99;96519.14;1780443;79;21340;-81
2021/07/17 08:50:40;;;;;;;13.70;12.28;;;;;;;24.53;75.51;96518.86;1779047;79;20994;-81
2021/07/17 08:53:06;;;;;;;14.60;13.10;;;;;;;24.56;75.74;96517.52;1759232;80;20916;-81
2021/07/17 08:55:33;;;;;;;15.50;13.83;;;;;;;24.50;74.52;96511.43;1750916;80;20932;-81
2021/07/17 08:57:58;;;;;;;14.03;12.55;;;;;;;24.49;74.33;96513.02;1728777;80;20911;-81
2021/07/17 09:00:31;;;;;;;12.43;11.22;;;;;;;24.57;75.38;96507.69;1755920;80;21279;-81
2021/07/17 09:03:02;;;;;;;15.68;13.90;;;;;;;24.65;74.99;96501.85;1750777;80;21028;-81
2021/07/17 09:05:31;;;;;;;15.10;12.93;;;;;;;24.91;74.50;96499.95;1752305;80;21268;-81
2021/07/17 09:07:57;;;;;;;15.03;11.90;;;;;;;25.08;73.82;96496.48;1757066;80;20916;-81
2021/07/17 09:10:43;;;;;;;14.45;12.63;;;;;;;25.39;73.81;96501.16;1758636;80;20939;-81
2021/07/17 09:13:28;;;;;;;14.43;12.93;;;;;;;25.39;73.81;96501.16;1759895;80;21769;-81
2021/07/17 09:16:08;;;;;;;15.30;13.58;;;;;;;25.31;72.72;96501.70;1727870;81;20999;-81
2021/07/17 09:18:54;;;;;;;14.28;12.78;;;;;;;25.29;72.45;96502.52;1761682;80;20959;-81
2021/07/17 09:21:37;;;;;;;16.55;11.73;;;;;;;25.18;72.91;96508.92;1786486;79;20953;-81
2021/07/17 09:24:09;;;;;;;13.58;12.20;;;;;;;25.08;72.99;96499.94;1762386;80;20963;-81
2021/07/17 09:26:41;;;;;;;14.40;12.35;;;;;;;25.01;72.58;96502.59;1784275;79;20983;-81
2021/07/17 09:29:11;;;;;;;13.62;12.30;;;;;;;25.00;73.10;96500.47;1793526;79;20990;-81
2021/07/17 09:31:52;;;;;;;15.28;12.37;;;;;;;24.98;73.32;96501.25;1789532;79;20891;-81
2021/07/17 09:34:20;;;;;;;13.30;11.93;;;;;;;24.91;73.30;96507.39;1782179;79;21212;-81
2021/07/17 09:37:07;;;;;;;15.58;12.13;;;;;;;24.79;72.42;96504.22;1793234;79;21286;-81
2021/07/17 09:39:42;;;;;;;13.58;12.25;;;;;;;24.79;72.42;96504.22;1761290;79;20979;-82
2021/07/17 09:42:12;;;;;;;13.25;11.95;;;;;;;24.80;73.06;96498.64;1772505;79;21239;-81
2021/07/17 09:44:38;;;;;;;15.18;12.65;;;;;;;24.90;74.17;96505.01;1775065;79;21268;-81
2021/07/17 09:47:23;;;;;;;14.68;13.00;;;;;;;24.95;74.04;96506.31;1773748;79;20942;-81
2021/07/17 09:49:49;;;;;;;14.78;13.20;;;;;;;24.97;73.52;96504.98;1736993;81;20925;-81
2021/07/17 09:52:22;;;;;;;14.43;12.63;;;;;;;25.03;72.49;96503.12;1773387;79;20898;-81
2021/07/17 09:55:14;;;;;;;15.53;12.63;;;;;;;25.03;72.49;96503.12;1772881;79;20930;-82
2021/07/17 09:57:40;;;;;;;14.35;13.00;;;;;;;25.07;72.17;96506.31;1718868;80;20937;-81
2021/07/17 10:00:11;;;;;;;15.53;11.73;;;;;;;25.17;72.63;96512.66;1774568;79;20937;-81
2021/07/17 10:02:39;;;;;;;13.05;11.83;;;;;;;25.19;73.33;96507.32;1772797;79;21026;-81
2021/07/17 10:05:07;;;;;;;13.48;12.18;;;;;;;25.23;73.48;96508.93;1776014;79;21276;-81
2021/07/17 10:07:33;;;;;;;12.28;11.03;;;;;;;25.27;73.11;96508.11;1772822;79;21283;-81
2021/07/17 10:09:59;;;;;;;13.48;12.07;;;;;;;25.30;73.94;96507.55;1773511;79;20912;-81
2021/07/17 10:12:33;;;;;;;13.95;12.55;;;;;;;25.33;73.01;96504.88;1742122;81;20917;-81
2021/07/17 10:14:59;;;;;;;14.20;12.13;;;;;;;25.30;73.13;96506.76;1753605;79;20953;-82
2021/07/17 10:17:38;;;;;;;14.40;11.55;;;;;;;25.27;73.93;96499.33;1760853;81;20960;-81
2021/07/17 10:20:11;;;;;;;12.85;11.65;;;;;;;25.30;73.36;96501.44;1750470;81;20949;-82
2021/07/17 10:22:37;;;;;;;13.53;12.15;;;;;;;25.35;73.90;96500.08;1742587;81;20996;-81
2021/07/17 10:25:07;;;;;;;12.73;11.40;;;;;;;25.38;73.98;96490.22;1686218;84;20920;-81
2021/07/17 10:27:34;;;;;;;14.70;12.75;;;;;;;25.38;73.98;96490.22;1742637;81;20948;-81
2021/07/17 10:30:01;;;;;;;12.50;11.40;;;;;;;25.44;73.03;96500.58;1754637;80;20949;-81
2021/07/17 10:32:27;;;;;;;13.38;11.93;;;;;;;25.45;74.08;96498.72;1755549;80;21266;-81
2021/07/17 10:34:53;;;;;;;13.38;12.15;;;;;;;25.46;72.43;96498.18;1721654;82;20879;-81
2021/07/17 10:37:20;;;;;;;13.90;12.50;;;;;;;25.52;73.33;96499.73;1750342;80;20981;-81
2021/07/17 10:40:02;;;;;;;13.65;12.15;;;;;;;25.59;72.54;96494.39;1728606;82;20988;-81
2021/07/17 10:42:28;;;;;;;13.10;10.88;;;;;;;25.57;72.56;96492.55;1742648;81;20944;-81
2021/07/17 10:44:58;;;;;;;13.08;11.80;;;;;;;25.66;73.03;96499.41;1750931;81;20984;-82
2021/07/17 10:47:22;;;;;;;15.40;12.75;;;;;;;25.75;71.88;96491.14;1747842;81;21047;-81
2021/07/17 10:49:53;;;;;;;14.78;12.23;;;;;;;25.98;73.19;96479.00;1745474;81;20957;-82
2021/07/17 10:52:42;;;;;;;16.32;13.13;;;;;;;26.27;71.94;96484.38;1734848;81;20940;-82
2021/07/17 10:55:33;;;;;;;14.03;12.68;;;;;;;26.50;70.62;96470.34;1736933;81;20992;-81
2021/07/17 10:58:17;;;;;;;13.98;12.68;;;;;;;26.74;69.58;96467.72;1737643;81;20943;-82
2021/07/17 11:00:49;;;;;;;14.70;13.20;;;;;;;26.96;68.27;96459.75;1731926;81;20957;-82
2021/07/17 11:03:28;;;;;;;13.48;12.18;;;;;;;27.03;68.89;96468.25;1743840;81;21472;-81
2021/07/17 11:05:53;;;;;;;14.58;13.08;;;;;;;27.12;69.12;96461.20;1742771;81;21013;-81
2021/07/17 11:08:36;;;;;;;14.05;12.65;;;;;;;27.15;68.25;96456.62;1743428;81;20972;-82
2021/07/17 11:11:36;;;;;;;14.00;12.58;;;;;;;27.24;68.83;96456.79;1747219;81;20909;-82
2021/07/17 11:14:14;;;;;;;14.70;13.13;;;;;;;27.43;68.07;96454.94;1750878;79;20967;-82
2021/07/17 11:16:48;;;;;;;13.72;12.33;;;;;;;27.59;67.80;96450.98;1774578;79;20996;-82
2021/07/17 11:19:27;;;;;;;13.45;12.15;;;;;;;27.58;66.96;96451.27;1760095;80;20996;-82
2021/07/17 11:21:56;;;;;;;14.03;12.63;;;;;;;27.52;66.78;96449.22;1761696;79;20928;-81